Time;durP1;ratioP1;P1;durP2;ratioP2;P2;SDS_P1;SDS_P2;PMS_P1;PMS_P2;Temp;Humidity;BMP_temperature;BMP_pressure;BME280_temperature;BME280_humidity;BME280_pressure;Samples;Min_cycle;Max_cycle;Signal;HPM_P1;HPM_P2
2021/12/01 00:00:44;;;;;;;4.30;2.00;;;;;;;2.26;100.00;97734.72;4500426;31;20491;-74
2021/12/01 00:03:12;;;;;;;3.30;1.90;;;;;;;2.24;100.00;97736.59;4499236;31;20126;-74
2021/12/01 00:05:40;;;;;;;3.97;2.75;;;;;;;2.20;100.00;97731.75;4500740;31;20087;-74
2021/12/01 00:08:07;;;;;;;4.45;1.80;;;;;;;2.24;100.00;97730.59;4500361;31;20093;-74
2021/12/01 00:10:36;;;;;;;3.55;1.95;;;;;;;2.23;100.00;97731.53;4500667;31;20096;-75
2021/12/01 00:13:05;;;;;;;4.65;2.00;;;;;;;2.23;100.00;97731.53;4500525;31;20092;-74
2021/12/01 00:15:33;;;;;;;4.10;1.90;;;;;;;2.26;100.00;97737.31;4500382;31;20156;-74
2021/12/01 00:18:00;;;;;;;3.80;2.20;;;;;;;2.29;100.00;97744.00;4500556;31;20111;-74
2021/12/01 00:20:28;;;;;;;4.43;2.05;;;;;;;2.25;100.00;97743.41;4500282;31;20092;-75
2021/12/01 00:22:55;;;;;;;4.57;2.05;;;;;;;2.26;100.00;97750.22;4489901;31;20160;-75
2021/12/01 00:25:23;;;;;;;4.10;2.12;;;;;;;2.31;100.00;97753.28;4500071;31;20096;-75
2021/12/01 00:27:51;;;;;;;2.85;1.98;;;;;;;2.30;100.00;97751.66;4499839;31;20096;-75
2021/12/01 00:30:19;;;;;;;3.53;2.00;;;;;;;2.35;100.00;97751.31;4500689;31;20095;-75
2021/12/01 00:32:48;;;;;;;4.43;2.05;;;;;;;2.35;100.00;97760.81;4500266;31;20476;-75
2021/12/01 00:35:15;;;;;;;3.40;2.10;;;;;;;2.41;100.00;97758.63;4500284;31;20084;-75
2021/12/01 00:37:43;;;;;;;2.87;1.65;;;;;;;2.46;100.00;97760.87;4500307;31;20449;-74
2021/12/01 00:40:11;;;;;;;2.67;1.40;;;;;;;2.54;100.00;97755.97;4500086;31;20096;-74
2021/12/01 00:42:39;;;;;;;4.55;0.90;;;;;;;2.62;100.00;97766.59;4500288;31;20230;-74
2021/12/01 00:45:28;;;;;;;1.35;0.70;;;;;;;2.78;100.00;97763.69;4500104;31;20524;-74
2021/12/01 00:47:55;;;;;;;1.25;0.70;;;;;;;3.01;100.00;97769.78;4500515;31;20088;-74
2021/12/01 00:50:34;;;;;;;1.02;0.68;;;;;;;3.20;98.82;97778.75;4499775;31;20452;-74
2021/12/01 00:53:03;;;;;;;1.20;0.80;;;;;;;3.38;98.52;97781.72;4500157;31;20163;-74
2021/12/01 00:55:31;;;;;;;1.08;0.68;;;;;;;3.40;98.12;97777.22;4499786;31;20142;-74
2021/12/01 00:57:58;;;;;;;0.93;0.52;;;;;;;3.53;96.59;97777.13;4500389;31;20104;-74
2021/12/01 01:00:27;;;;;;;1.30;0.70;;;;;;;3.50;97.74;97779.97;4499931;31;20497;-75
2021/12/01 01:02:58;;;;;;;1.08;0.70;;;;;;;3.53;96.11;97766.78;4500230;31;20106;-75
2021/12/01 01:05:26;;;;;;;1.35;0.70;;;;;;;3.62;96.72;97762.63;4499956;31;20110;-75
2021/12/01 01:07:53;;;;;;;1.23;0.80;;;;;;;3.50;97.23;97764.44;4499821;31;20100;-75
2021/12/01 01:18:36;;;;;;;2.70;0.70;;;;;;;3.61;95.75;97767.00;4499761;31;20115;-74
2021/12/01 01:21:04;;;;;;;1.33;0.80;;;;;;;3.65;95.15;97765.84;4499407;31;20080;-74
2021/12/01 01:23:33;;;;;;;0.93;0.65;;;;;;;3.61;95.33;97772.19;4484128;31;20442;-75
2021/12/01 01:26:03;;;;;;;0.93;0.62;;;;;;;3.65;94.89;97767.56;4483585;31;20171;-74
2021/12/01 01:28:30;;;;;;;1.92;0.85;;;;;;;3.61;94.75;97792.91;4490294;31;20479;-74
2021/12/01 01:30:58;;;;;;;1.55;1.20;;;;;;;3.69;94.67;97772.44;4499376;31;20162;-74
2021/12/01 01:33:25;;;;;;;1.48;1.10;;;;;;;3.63;93.49;97765.09;4499577;31;20088;-74
2021/12/01 01:35:52;;;;;;;2.33;1.02;;;;;;;3.65;93.68;97768.41;4499259;31;20075;-74
2021/12/01 01:38:20;;;;;;;1.25;0.80;;;;;;;3.64;93.40;97771.94;4500853;31;20111;-74
2021/12/01 01:40:47;;;;;;;0.95;0.90;;;;;;;3.60;93.70;97774.87;4501463;31;20149;-74
2021/12/01 01:43:15;;;;;;;1.70;0.77;;;;;;;3.60;93.86;97773.09;4501958;31;20091;-74
2021/12/01 01:45:43;;;;;;;1.90;1.20;;;;;;;3.56;93.50;97769.13;4501422;31;20130;-74
2021/12/01 01:48:13;;;;;;;2.58;1.27;;;;;;;3.55;93.54;97789.00;4501563;31;20104;-75
2021/12/01 01:50:43;;;;;;;1.58;1.00;;;;;;;3.58;94.29;97774.19;4501673;31;20343;-74
2021/12/01 01:53:17;;;;;;;2.33;1.15;;;;;;;3.47;94.50;97764.66;4501563;31;20560;-74
2021/12/01 01:55:50;;;;;;;3.58;1.15;;;;;;;3.49;94.07;97770.53;4501737;31;20102;-74
2021/12/01 01:58:18;;;;;;;3.28;1.40;;;;;;;3.50;94.15;97775.59;4501573;31;20148;-74
2021/12/01 02:00:51;;;;;;;4.75;1.15;;;;;;;3.53;94.22;97771.97;4501604;31;20096;-74
2021/12/01 02:03:21;;;;;;;2.28;0.90;;;;;;;3.50;93.83;97782.56;4501591;31;20084;-74
2021/12/01 02:05:50;;;;;;;2.05;0.77;;;;;;;3.45;94.13;97780.31;4501480;31;20092;-74
2021/12/01 02:08:28;;;;;;;4.07;0.93;;;;;;;3.50;93.36;97795.50;4501504;31;20096;-75
2021/12/01 02:10:58;;;;;;;1.62;0.82;;;;;;;3.50;93.58;97769.59;4501725;31;20151;-75
2021/12/01 02:13:26;;;;;;;1.58;1.00;;;;;;;3.53;93.46;97782.31;4501625;31;20115;-74
2021/12/01 02:15:53;;;;;;;1.87;1.15;;;;;;;3.54;93.26;97789.13;4501215;31;20096;-74
2021/12/01 02:18:21;;;;;;;1.73;0.80;;;;;;;3.53;93.47;97792.66;4501418;31;20108;-75
2021/12/01 02:21:05;;;;;;;1.42;0.90;;;;;;;3.51;93.27;97790.19;4501449;31;20092;-75
2021/12/01 02:23:38;;;;;;;2.25;0.98;;;;;;;3.51;93.30;97799.72;4485743;31;20084;-74
2021/12/01 02:26:05;;;;;;;1.50;0.73;;;;;;;3.48;93.63;97799.94;4485408;31;20106;-74
2021/12/01 02:28:33;;;;;;;2.53;1.10;;;;;;;3.42;93.62;97803.81;4492491;31;20128;-74
2021/12/01 02:31:00;;;;;;;1.85;1.25;;;;;;;3.36;94.38;97802.53;4501246;31;20122;-75
2021/12/01 02:33:28;;;;;;;1.65;0.98;;;;;;;3.36;94.36;97792.19;4501008;31;20092;-75
2021/12/01 02:35:55;;;;;;;3.05;1.52;;;;;;;3.35;93.99;97800.06;4501248;31;20168;-75
2021/12/01 02:38:23;;;;;;;2.28;1.02;;;;;;;3.30;94.48;97805.59;4501328;31;20134;-75
2021/12/01 02:40:50;;;;;;;1.40;0.98;;;;;;;3.33;94.40;97792.41;4501124;31;20123;-74
2021/12/01 02:43:21;;;;;;;2.03;1.30;;;;;;;3.32;94.24;97784.75;4501475;31;20104;-74
2021/12/01 02:45:51;;;;;;;2.60;1.02;;;;;;;3.34;94.39;97799.22;4501102;31;20088;-75
2021/12/01 02:48:19;;;;;;;2.33;1.33;;;;;;;3.31;94.77;97796.06;4501404;31;20151;-75
2021/12/01 02:50:47;;;;;;;1.55;1.17;;;;;;;3.24;94.37;97784.50;4500728;31;20126;-75
2021/12/01 02:53:15;;;;;;;2.30;1.33;;;;;;;3.22;95.25;97789.78;4501366;31;20110;-75
2021/12/01 02:55:57;;;;;;;1.65;1.00;;;;;;;3.28;95.08;97798.87;4500097;31;20148;-74
2021/12/01 02:58:25;;;;;;;1.73;1.00;;;;;;;3.22;95.30;97802.72;4501702;31;20111;-75
2021/12/01 03:00:54;;;;;;;3.30;1.20;;;;;;;3.19;95.60;97797.78;4501231;31;20121;-75
2021/12/01 03:03:23;;;;;;;2.95;1.30;;;;;;;3.14;95.59;97798.13;4501075;31;20091;-74
2021/12/01 03:05:51;;;;;;;1.75;1.15;;;;;;;3.16;95.26;97796.28;4501224;31;20084;-75
2021/12/01 03:08:20;;;;;;;2.97;1.50;;;;;;;3.07;95.25;97781.41;4501450;31;20164;-75
2021/12/01 03:10:51;;;;;;;3.87;1.45;;;;;;;3.04;95.68;97780.81;4501360;31;20814;-75
2021/12/01 03:13:20;;;;;;;2.75;1.30;;;;;;;2.95;96.18;97796.09;4501111;31;20437;-75
2021/12/01 03:15:48;;;;;;;1.77;1.10;;;;;;;2.90;96.29;97798.19;4500833;31;20103;-74
2021/12/01 03:18:16;;;;;;;2.35;1.30;;;;;;;2.81;96.84;97796.28;4501081;31;20100;-75
2021/12/01 03:20:46;;;;;;;2.47;1.27;;;;;;;2.65;97.76;97799.97;4501087;31;20184;-75
2021/12/01 03:23:14;;;;;;;1.02;0.57;;;;;;;2.63;97.96;97794.12;4500952;31;20638;-75
2021/12/01 03:25:42;;;;;;;1.62;1.00;;;;;;;2.53;98.58;97808.63;4501025;31;20457;-74
2021/12/01 03:28:10;;;;;;;2.30;1.20;;;;;;;2.51;98.88;97807.91;4501024;31;20163;-75
2021/12/01 03:30:38;;;;;;;2.05;1.12;;;;;;;2.49;98.88;97807.19;4501052;31;20585;-75
2021/12/01 03:33:12;;;;;;;1.90;0.90;;;;;;;2.46;99.04;97815.97;4500708;31;20496;-74
2021/12/01 03:35:43;;;;;;;1.85;1.40;;;;;;;2.51;98.90;97825.19;4501180;31;20186;-75
2021/12/01 03:38:10;;;;;;;1.62;0.95;;;;;;;2.48;98.99;97826.22;4500928;31;20521;-74
2021/12/01 03:40:38;;;;;;;1.45;0.90;;;;;;;2.49;98.86;97814.94;4500727;31;20092;-75
2021/12/01 03:43:06;;;;;;;0.98;0.80;;;;;;;2.57;98.49;97824.75;4500685;31;20603;-74
2021/12/01 03:45:33;;;;;;;6.65;1.10;;;;;;;2.61;98.05;97821.00;4500499;31;20083;-75
2021/12/01 03:48:00;;;;;;;1.65;0.90;;;;;;;2.65;97.68;97822.44;4500653;31;20092;-75
2021/12/01 03:50:28;;;;;;;1.55;0.82;;;;;;;2.64;97.62;97836.31;4501063;31;20100;-75
2021/12/01 03:52:55;;;;;;;0.88;0.40;;;;;;;2.64;97.59;97841.47;4500617;31;20396;-74
2021/12/01 03:55:22;;;;;;;0.70;0.30;;;;;;;2.66;97.27;97834.41;4500622;31;20416;-75
2021/12/01 03:57:49;;;;;;;1.05;0.60;;;;;;;2.72;96.94;97831.38;4500902;31;20163;-75
2021/12/01 04:00:18;;;;;;;0.70;0.50;;;;;;;2.77;96.47;97824.13;4500117;31;20084;-75
2021/12/01 04:02:46;;;;;;;0.50;0.47;;;;;;;2.81;96.31;97829.91;4499799;31;20492;-75
2021/12/01 04:05:13;;;;;;;0.20;0.15;;;;;;;2.84;96.01;97830.50;4500271;31;20497;-74
2021/12/01 04:07:41;;;;;;;0.40;0.30;;;;;;;2.88;95.72;97836.28;4500603;31;20423;-75
2021/12/01 04:10:12;;;;;;;1.60;0.37;;;;;;;2.93;95.56;97831.59;4500661;31;20456;-75
2021/12/01 04:12:41;;;;;;;0.68;0.30;;;;;;;2.95;95.51;97821.13;4500601;31;20088;-75
2021/12/01 04:15:11;;;;;;;0.47;0.47;;;;;;;2.97;95.35;97833.03;4500380;31;20164;-75
2021/12/01 04:17:39;;;;;;;1.05;0.35;;;;;;;2.98;95.36;97841.59;4500544;31;20143;-74
2021/12/01 04:20:07;;;;;;;0.50;0.30;;;;;;;2.99;95.14;97819.97;4500367;31;20096;-75
2021/12/01 04:22:36;;;;;;;0.75;0.45;;;;;;;3.10;94.52;97820.00;4499030;31;20517;-75
2021/12/01 04:25:04;;;;;;;0.22;0.10;;;;;;;3.10;94.72;97832.94;4500267;31;20084;-74
2021/12/01 04:27:31;;;;;;;0.17;0.17;;;;;;;3.09;94.89;97833.88;4500219;31;20126;-75
2021/12/01 04:29:58;;;;;;;0.30;0.30;;;;;;;3.10;94.82;97835.53;4500309;31;20096;-74
2021/12/01 04:32:26;;;;;;;0.62;0.30;;;;;;;3.04;95.40;97854.09;4500288;31;20095;-75
2021/12/01 04:34:55;;;;;;;0.13;0.13;;;;;;;3.07;95.38;97863.41;4500294;31;20092;-75
2021/12/01 04:37:24;;;;;;;0.25;0.15;;;;;;;3.01;95.63;97869.84;4500528;31;20164;-75
2021/12/01 04:39:52;;;;;;;0.47;0.20;;;;;;;2.97;95.83;97874.41;4500167;31;20182;-74
2021/12/01 04:42:20;;;;;;;0.45;0.20;;;;;;;2.94;96.07;97874.63;4499962;31;20401;-74
2021/12/01 04:44:47;;;;;;;0.35;0.35;;;;;;;2.92;96.34;97886.88;4499977;31;20111;-75
2021/12/01 04:47:17;;;;;;;0.30;0.30;;;;;;;2.98;96.19;97901.94;4499997;31;20104;-75
2021/12/01 04:49:45;;;;;;;1.87;0.70;;;;;;;3.05;95.69;97888.56;4499920;31;20092;-75
2021/12/01 04:52:12;;;;;;;1.23;0.70;;;;;;;3.09;95.53;97902.91;4500001;31;20147;-75
2021/12/01 04:54:40;;;;;;;1.02;0.50;;;;;;;3.04;95.67;97905.03;4499742;31;20092;-75
2021/12/01 04:57:07;;;;;;;1.33;0.70;;;;;;;3.05;95.66;97899.72;4499779;31;20116;-75
2021/12/01 04:59:35;;;;;;;1.02;0.70;;;;;;;3.02;95.92;97907.72;4500014;31;20151;-75
2021/12/01 05:02:03;;;;;;;1.55;0.88;;;;;;;2.95;96.10;97911.69;4499636;31;20084;-75
2021/12/01 05:04:30;;;;;;;2.05;1.00;;;;;;;2.90;96.52;97921.53;4500101;31;20122;-75
2021/12/01 05:06:58;;;;;;;1.15;0.80;;;;;;;3.04;98.01;97920.53;4499877;31;20155;-74
2021/12/01 05:09:25;;;;;;;1.30;0.85;;;;;;;3.20;96.29;97928.84;4499868;31;20092;-74
2021/12/01 05:11:52;;;;;;;1.65;1.00;;;;;;;3.38;97.45;97935.28;4499671;31;20110;-74
2021/12/01 05:14:20;;;;;;;1.55;1.00;;;;;;;3.60;95.45;97940.63;4501639;31;20143;-75
2021/12/01 05:16:47;;;;;;;1.23;0.80;;;;;;;3.86;94.89;97943.87;4501807;31;20092;-75
2021/12/01 05:19:14;;;;;;;2.92;0.90;;;;;;;3.93;92.96;97959.78;4501731;31;20134;-75
2021/12/01 05:21:42;;;;;;;1.42;0.85;;;;;;;3.75;93.53;97967.97;4501670;31;20230;-75
2021/12/01 05:24:09;;;;;;;2.22;0.88;;;;;;;3.66;93.98;97969.47;4501876;31;20084;-75
2021/12/01 05:26:36;;;;;;;1.80;0.82;;;;;;;3.61;94.42;97974.19;4500971;31;20100;-74
2021/12/01 05:29:04;;;;;;;1.12;0.77;;;;;;;3.50;94.74;97984.53;4501560;31;20477;-75
2021/12/01 05:31:32;;;;;;;2.20;1.15;;;;;;;3.45;95.63;97982.28;4500935;31;20110;-75
2021/12/01 05:33:59;;;;;;;1.33;1.10;;;;;;;3.36;96.12;97986.34;4500765;31;20156;-75
2021/12/01 05:36:27;;;;;;;2.10;1.08;;;;;;;3.41;96.63;97990.34;4500573;31;20116;-75
2021/12/01 05:38:54;;;;;;;2.45;0.90;;;;;;;3.61;95.64;97991.50;4498787;31;20092;-75
2021/12/01 05:41:21;;;;;;;1.92;1.08;;;;;;;3.92;94.60;98000.41;4500839;31;20119;-75
2021/12/01 05:43:49;;;;;;;1.95;1.08;;;;;;;4.08;93.16;97993.12;4499756;31;20396;-75
2021/12/01 05:46:16;;;;;;;3.00;1.15;;;;;;;4.28;92.23;98001.19;4499346;31;20092;-75
2021/12/01 05:48:43;;;;;;;2.83;1.02;;;;;;;4.48;91.05;98004.87;4500208;31;20183;-75
2021/12/01 05:51:11;;;;;;;1.73;0.98;;;;;;;4.60;90.21;98010.84;4499262;31;20134;-75
2021/12/01 05:53:38;;;;;;;3.20;1.30;;;;;;;4.55;90.12;98011.22;4500141;31;20591;-75
2021/12/01 05:56:05;;;;;;;1.95;0.80;;;;;;;4.52;90.24;98008.03;4499169;31;20240;-75
2021/12/01 05:58:33;;;;;;;1.73;0.88;;;;;;;4.47;90.58;98020.53;4497442;31;20137;-75
2021/12/01 06:01:00;;;;;;;2.45;0.80;;;;;;;4.42;91.25;98013.94;4498388;31;20125;-75
2021/12/01 06:03:28;;;;;;;1.60;0.90;;;;;;;4.39;90.85;98024.53;4500014;31;20091;-74
2021/12/01 06:05:55;;;;;;;1.50;1.00;;;;;;;4.44;90.61;98021.59;4497987;31;20095;-75
2021/12/01 06:08:23;;;;;;;1.10;1.00;;;;;;;4.41;90.95;98027.84;4496204;31;20137;-75
2021/12/01 06:10:50;;;;;;;2.90;0.90;;;;;;;4.49;90.32;98024.66;4500319;31;20104;-75
2021/12/01 06:13:20;;;;;;;1.30;0.80;;;;;;;4.59;90.56;98027.37;4501306;31;20092;-75
2021/12/01 06:15:53;;;;;;;1.77;0.82;;;;;;;4.54;90.22;98024.31;4501347;31;20525;-75
2021/12/01 06:18:20;;;;;;;1.08;0.70;;;;;;;4.52;91.08;98023.59;4501280;31;20084;-75
2021/12/01 06:20:47;;;;;;;1.95;0.95;;;;;;;4.63;90.09;98028.78;4501284;31;20122;-75
2021/12/01 06:23:15;;;;;;;1.30;0.68;;;;;;;4.68;89.97;98034.47;4501035;31;20096;-75
2021/12/01 06:25:43;;;;;;;1.73;0.80;;;;;;;4.77;89.82;98041.53;4500122;31;20159;-75
2021/12/01 06:28:10;;;;;;;1.23;0.80;;;;;;;4.89;88.95;98044.94;4498933;31;20503;-75
2021/12/01 06:30:38;;;;;;;1.67;0.90;;;;;;;4.91;88.46;98045.66;4501191;31;20100;-75
2021/12/01 06:33:06;;;;;;;1.60;0.98;;;;;;;4.80;88.79;98050.84;4501221;31;20127;-75
2021/12/01 06:35:34;;;;;;;1.52;0.50;;;;;;;4.55;90.05;98057.09;4501298;31;20104;-75
2021/12/01 06:38:02;;;;;;;2.90;0.90;;;;;;;4.38;90.95;98059.19;4500552;31;20112;-75
2021/12/01 06:40:30;;;;;;;3.33;1.12;;;;;;;4.23;92.04;98065.53;4501296;31;20096;-75
2021/12/01 06:42:59;;;;;;;4.25;1.30;;;;;;;4.14;92.69;98061.03;4498230;31;20092;-75
2021/12/01 06:45:26;;;;;;;2.70;1.30;;;;;;;4.04;93.71;98082.44;4498927;31;20123;-75
2021/12/01 06:47:53;;;;;;;1.40;1.00;;;;;;;4.01;93.85;98074.91;4500376;31;20092;-75
2021/12/01 06:50:21;;;;;;;2.22;0.73;;;;;;;3.98;94.32;98082.91;4493697;31;20469;-75
2021/12/01 06:52:48;;;;;;;1.33;0.82;;;;;;;3.98;94.79;98089.84;4485308;31;20104;-75
2021/12/01 06:55:15;;;;;;;4.50;1.08;;;;;;;3.94;94.89;98081.47;4505730;31;20160;-75
2021/12/01 06:57:42;;;;;;;1.35;1.00;;;;;;;3.78;95.76;98086.94;4516373;31;20091;-75
2021/12/01 07:00:12;;;;;;;1.05;0.80;;;;;;;3.80;96.05;98084.22;4514931;31;20083;-74
2021/12/01 07:02:39;;;;;;;2.05;0.93;;;;;;;3.86;95.71;98086.38;4492942;31;20109;-75
2021/12/01 07:05:09;;;;;;;2.85;1.30;;;;;;;3.86;95.79;98081.19;4492378;31;20088;-75
2021/12/01 07:07:36;;;;;;;3.30;1.33;;;;;;;3.91;95.75;98081.69;4496543;31;20104;-74
2021/12/01 07:10:06;;;;;;;1.45;1.20;;;;;;;3.94;96.00;98075.44;4498257;31;20667;-74
2021/12/01 07:12:33;;;;;;;1.60;0.90;;;;;;;3.98;95.25;98071.69;4485434;31;20097;-74
2021/12/01 07:15:00;;;;;;;1.75;0.90;;;;;;;4.04;95.06;98056.53;4494508;31;20139;-74
2021/12/01 07:17:28;;;;;;;1.45;0.90;;;;;;;4.12;94.07;98068.91;4488931;31;20149;-74
2021/12/01 07:19:55;;;;;;;1.50;0.77;;;;;;;4.10;94.57;98070.78;4482599;31;20122;-74
2021/12/01 07:22:22;;;;;;;4.97;1.80;;;;;;;4.21;94.90;98068.22;4494064;31;20095;-76
2021/12/01 07:24:49;;;;;;;1.85;1.00;;;;;;;4.32;94.08;98074.41;4489470;31;20434;-75
2021/12/01 07:27:17;;;;;;;1.62;1.02;;;;;;;4.29;93.85;98069.44;4490047;31;20104;-76
2021/12/01 07:29:45;;;;;;;1.98;0.73;;;;;;;4.34;93.65;98062.94;4493174;31;20128;-75
2021/12/01 07:32:13;;;;;;;1.45;0.93;;;;;;;4.47;92.96;98072.37;4500989;31;20092;-73
2021/12/01 07:34:43;;;;;;;4.55;0.95;;;;;;;4.55;92.08;98064.87;4495738;31;20819;-74
2021/12/01 07:37:12;;;;;;;1.75;0.88;;;;;;;4.55;92.72;98068.28;4484859;31;20929;-75
2021/12/01 07:39:39;;;;;;;1.20;0.88;;;;;;;4.51;93.11;98063.44;4496561;31;20536;-74
2021/12/01 07:42:07;;;;;;;6.90;1.10;;;;;;;4.58;93.51;98064.63;4500240;31;20100;-74
2021/12/01 07:44:34;;;;;;;2.33;0.95;;;;;;;4.72;93.16;98055.78;4493728;31;20359;-73
2021/12/01 07:47:02;;;;;;;2.17;1.23;;;;;;;4.79;93.34;98057.78;4489349;31;20100;-74
2021/12/01 07:49:29;;;;;;;1.80;0.90;;;;;;;4.80;93.46;98049.06;4494813;31;20572;-73
2021/12/01 07:52:00;;;;;;;2.03;1.23;;;;;;;4.85;93.54;98045.31;4497471;31;20088;-74
2021/12/01 07:54:27;;;;;;;2.42;1.27;;;;;;;4.87;94.02;98039.03;4499336;31;20155;-74
2021/12/01 07:56:55;;;;;;;1.70;1.08;;;;;;;4.97;93.47;98031.38;4491780;31;20163;-73
2021/12/01 07:59:22;;;;;;;3.28;1.40;;;;;;;4.99;93.63;98029.47;4498731;31;20131;-73
2021/12/01 08:01:50;;;;;;;5.53;1.30;;;;;;;4.82;94.15;98027.37;4491133;31;20092;-73
2021/12/01 08:04:17;;;;;;;2.30;1.00;;;;;;;4.72;95.37;98035.84;4499209;31;20103;-74
2021/12/01 08:06:44;;;;;;;1.30;1.00;;;;;;;5.02;94.10;98033.59;4500090;31;20096;-73
2021/12/01 08:09:12;;;;;;;2.40;1.30;;;;;;;5.08;93.97;98025.34;4499661;31;20118;-73
2021/12/01 08:11:40;;;;;;;2.75;1.00;;;;;;;5.10;93.76;98021.69;4493027;31;20092;-75
2021/12/01 08:14:07;;;;;;;2.08;1.05;;;;;;;5.09;93.34;98039.97;4498005;31;20096;-75
2021/12/01 08:16:35;;;;;;;4.72;1.85;;;;;;;5.09;94.18;98040.78;4496418;31;20108;-76
2021/12/01 08:19:04;;;;;;;4.32;1.08;;;;;;;5.24;94.32;98035.31;4498739;31;20199;-75
2021/12/01 08:21:33;;;;;;;0.95;0.55;;;;;;;5.19;94.76;98038.28;4497558;31;20096;-74
2021/12/01 08:24:10;;;;;;;1.48;0.77;;;;;;;5.39;93.55;98039.31;4489332;31;20134;-75
2021/12/01 08:26:38;;;;;;;0.75;0.73;;;;;;;5.54;93.72;98044.22;4494216;31;20228;-74
2021/12/01 08:29:05;;;;;;;2.20;1.05;;;;;;;5.50;94.07;98044.47;4493777;31;20128;-74
2021/12/01 08:31:33;;;;;;;19.73;8.35;;;;;;;5.45;93.73;98045.78;4490831;31;20089;-73
2021/12/01 08:34:00;;;;;;;3.70;1.92;;;;;;;5.30;95.55;98045.25;4489008;31;20122;-75
2021/12/01 08:36:27;;;;;;;1.27;1.02;;;;;;;5.32;96.22;98051.13;4500245;31;20483;-74
2021/12/01 08:38:55;;;;;;;2.87;1.77;;;;;;;5.32;96.22;98049.34;4499264;31;20096;-75
2021/12/01 08:41:22;;;;;;;3.90;2.03;;;;;;;5.26;97.69;98052.44;4499100;31;20095;-75
2021/12/01 08:43:49;;;;;;;4.35;2.30;;;;;;;5.18;98.31;98056.59;4486330;31;20153;-74
2021/12/01 08:46:17;;;;;;;5.12;2.10;;;;;;;5.17;97.95;98050.56;4498441;31;20167;-75
2021/12/01 08:48:44;;;;;;;2.87;2.00;;;;;;;5.27;98.03;98042.91;4501830;31;20113;-73
2021/12/01 08:51:11;;;;;;;5.07;2.10;;;;;;;5.36;98.61;98046.50;4500121;31;20134;-75
2021/12/01 08:53:41;;;;;;;5.07;2.20;;;;;;;5.58;97.23;98046.44;4498717;31;20131;-74
2021/12/01 08:56:12;;;;;;;4.57;1.95;;;;;;;5.67;96.80;98039.69;4500915;31;20084;-76
2021/12/01 08:58:40;;;;;;;4.43;1.85;;;;;;;5.78;97.11;98042.22;4485399;31;20126;-75
2021/12/01 09:01:07;;;;;;;5.80;2.08;;;;;;;5.90;96.57;98043.00;4497120;31;20084;-74
2021/12/01 09:03:36;;;;;;;3.12;1.60;;;;;;;6.02;96.38;98029.03;4488526;31;20169;-75
2021/12/01 09:06:03;;;;;;;7.97;3.47;;;;;;;6.10;96.54;98031.03;4488652;31;20536;-75
2021/12/01 09:08:31;;;;;;;15.95;7.22;;;;;;;6.19;97.09;98032.84;4494834;31;20103;-75
2021/12/01 09:11:00;;;;;;;5.40;3.72;;;;;;;6.39;96.63;98022.56;4496383;31;20092;-74
2021/12/01 09:13:28;;;;;;;6.60;2.60;;;;;;;6.44;94.69;98017.78;4497583;31;20461;-75
2021/12/01 09:15:56;;;;;;;5.35;2.58;;;;;;;6.54;92.98;98010.84;4500092;31;20118;-74
2021/12/01 09:18:25;;;;;;;5.62;2.45;;;;;;;6.75;91.18;98004.75;4485430;31;20107;-74
2021/12/01 09:20:52;;;;;;;4.82;2.85;;;;;;;6.70;89.85;98007.75;4496657;31;20085;-74
2021/12/01 09:23:20;;;;;;;3.58;2.30;;;;;;;6.50;91.48;98009.47;4484311;31;20097;-73
2021/12/01 09:25:47;;;;;;;8.35;3.85;;;;;;;6.75;92.01;98022.97;4486024;31;20104;-73
2021/12/01 09:28:18;;;;;;;5.70;2.40;;;;;;;6.84;92.95;98034.37;4497815;31;20125;-75
2021/12/01 09:30:45;;;;;;;3.37;2.17;;;;;;;6.85;92.80;98034.25;4500868;31;20440;-76
2021/12/01 09:33:13;;;;;;;5.45;2.75;;;;;;;6.74;90.12;98031.75;4486814;31;20119;-74
2021/12/01 09:35:44;;;;;;;9.95;3.42;;;;;;;6.74;89.47;98026.56;4495049;31;20175;-75
2021/12/01 09:38:14;;;;;;;19.90;3.60;;;;;;;6.71;90.05;98021.63;4492291;31;20108;-75
2021/12/01 09:40:46;;;;;;;12.82;3.00;;;;;;;6.83;89.86;98007.53;4492414;31;20115;-76
2021/12/01 09:43:16;;;;;;;7.75;3.35;;;;;;;7.06;88.06;97999.53;4490710;31;20156;-76
2021/12/01 09:45:45;;;;;;;8.57;4.97;;;;;;;7.12;89.20;98006.78;4487923;31;20168;-76
2021/12/01 09:48:13;;;;;;;6.22;3.28;;;;;;;7.29;88.72;98000.09;4490137;31;20099;-76
2021/12/01 09:50:40;;;;;;;7.90;3.70;;;;;;;7.32;89.65;97991.19;4496963;31;20433;-75
2021/12/01 09:53:14;;;;;;;10.50;3.42;;;;;;;7.28;86.13;97985.41;4491446;31;20437;-74
2021/12/01 09:55:43;;;;;;;7.43;3.70;;;;;;;7.20;85.97;97978.28;4508748;31;20222;-75
2021/12/01 09:58:16;;;;;;;7.10;3.35;;;;;;;7.07;86.07;97986.38;4492570;31;20124;-74
2021/12/01 10:00:49;;;;;;;6.87;3.80;;;;;;;7.13;84.97;97990.22;4497558;31;20466;-74
2021/12/01 10:03:17;;;;;;;5.85;3.40;;;;;;;7.16;84.46;97989.09;4493388;31;20092;-75
2021/12/01 10:06:13;;;;;;;5.55;3.10;;;;;;;7.25;84.04;97986.53;4487196;31;20125;-75
2021/12/01 10:08:53;;;;;;;6.70;2.67;;;;;;;7.14;84.03;97984.03;4495780;31;20121;-74
2021/12/01 10:11:25;;;;;;;5.50;3.08;;;;;;;7.36;83.26;97985.56;4492477;31;20119;-74
2021/12/01 10:14:02;;;;;;;4.62;2.40;;;;;;;7.28;81.75;97970.62;4486452;31;20108;-75
2021/12/01 10:16:31;;;;;;;4.95;2.90;;;;;;;7.27;82.12;97968.16;4495116;31;20456;-75
2021/12/01 10:19:02;;;;;;;7.32;3.00;;;;;;;7.15;80.80;97971.84;4499567;31;20154;-75
2021/12/01 10:21:34;;;;;;;9.60;3.92;;;;;;;7.20;80.33;97975.69;4497945;31;20092;-76
2021/12/01 10:24:11;;;;;;;5.68;3.10;;;;;;;7.29;79.93;97979.25;4501076;31;20107;-75
2021/12/01 10:26:38;;;;;;;4.50;3.20;;;;;;;7.35;81.25;97988.31;4497910;31;20111;-75
2021/12/01 10:29:11;;;;;;;6.53;2.50;;;;;;;7.45;81.11;97983.94;4493557;31;20254;-75
2021/12/01 10:31:44;;;;;;;7.82;4.12;;;;;;;7.41;76.94;97988.59;4492680;31;20115;-74
2021/12/01 10:34:24;;;;;;;10.18;3.20;;;;;;;7.38;77.23;97993.25;4489002;31;20148;-74
2021/12/01 10:37:07;;;;;;;6.47;3.00;;;;;;;7.18;78.62;97998.44;4488368;31;20159;-74
2021/12/01 10:39:35;;;;;;;8.68;4.35;;;;;;;7.23;76.78;97985.81;4496867;31;20080;-74
2021/12/01 10:42:11;;;;;;;7.45;2.90;;;;;;;7.39;77.21;97987.09;4494796;31;20576;-74
2021/12/01 10:44:54;;;;;;;7.40;3.22;;;;;;;7.32;77.58;97983.38;4500764;31;20092;-75
2021/12/01 10:47:21;;;;;;;4.85;3.00;;;;;;;7.49;77.22;97972.25;4498572;31;20084;-74
2021/12/01 10:49:49;;;;;;;7.28;2.70;;;;;;;7.54;76.91;97975.31;4495689;31;20114;-73
2021/12/01 10:52:41;;;;;;;5.00;2.90;;;;;;;7.49;76.29;97963.63;4498930;31;20118;-75
2021/12/01 10:55:21;;;;;;;5.50;2.70;;;;;;;7.32;75.66;97965.16;4493943;31;20125;-74
2021/12/01 10:57:57;;;;;;;5.97;2.70;;;;;;;7.24;76.55;97955.41;4493902;31;20770;-74
2021/12/01 11:00:30;;;;;;;4.10;2.45;;;;;;;7.33;74.99;97949.38;4487921;31;20131;-75
2021/12/01 11:03:12;;;;;;;7.57;3.78;;;;;;;7.28;75.56;97956.75;4499827;31;20512;-73
2021/12/01 11:05:43;;;;;;;6.30;2.72;;;;;;;7.24;76.93;97955.41;4485120;31;20150;-73
2021/12/01 11:08:19;;;;;;;6.87;2.50;;;;;;;7.31;76.70;97955.66;4485102;31;20092;-73
2021/12/01 11:10:49;;;;;;;5.68;2.97;;;;;;;7.41;76.85;97953.91;4490731;31;20096;-73
2021/12/01 11:13:18;;;;;;;3.17;2.42;;;;;;;7.36;76.32;97950.87;4485258;31;20089;-73
2021/12/01 11:15:54;;;;;;;5.55;2.42;;;;;;;7.42;75.68;97953.75;4498075;31;20096;-74
2021/12/01 11:18:47;;;;;;;3.58;1.80;;;;;;;7.51;75.23;97935.63;4484920;32;20103;-74
2021/12/01 11:21:23;;;;;;;5.47;2.25;;;;;;;7.56;74.40;97929.06;4495245;31;20107;-75
2021/12/01 11:23:52;;;;;;;4.60;2.53;;;;;;;7.64;74.77;97920.53;4498854;31;20597;-74
2021/12/01 11:26:22;;;;;;;5.87;2.60;;;;;;;7.76;74.26;97908.19;4502436;31;20104;-76
2021/12/01 11:28:57;;;;;;;5.05;2.50;;;;;;;8.14;74.65;97888.16;4504398;31;20174;-75
2021/12/01 11:31:34;;;;;;;4.15;2.05;;;;;;;8.23;73.25;97887.28;4494933;31;20484;-76
2021/12/01 11:34:12;;;;;;;4.80;2.37;;;;;;;8.23;71.49;97882.06;4509360;31;20143;-74
2021/12/01 11:36:48;;;;;;;8.27;3.00;;;;;;;8.34;72.24;97866.25;4497515;31;20104;-74
2021/12/01 11:39:23;;;;;;;7.75;3.15;;;;;;;8.43;71.66;97863.72;4493043;31;20158;-74
2021/12/01 11:41:52;;;;;;;3.60;2.00;;;;;;;8.58;70.59;97857.06;4484017;31;20084;-74
2021/12/01 11:44:20;;;;;;;6.85;2.47;;;;;;;8.59;71.34;97857.91;4489872;31;20610;-74
2021/12/01 11:46:49;;;;;;;9.02;2.28;;;;;;;8.68;70.64;97846.56;4499707;31;20100;-74
2021/12/01 11:49:17;;;;;;;6.05;2.45;;;;;;;8.75;70.57;97838.94;4498916;31;20126;-75
2021/12/01 11:51:56;;;;;;;3.95;2.00;;;;;;;8.77;70.74;97835.22;4499894;31;20123;-74
2021/12/01 11:54:24;;;;;;;7.32;2.53;;;;;;;8.85;68.48;97837.09;4490605;31;20084;-74
2021/12/01 11:57:04;;;;;;;3.25;2.12;;;;;;;8.88;67.32;97836.78;4499546;31;20179;-72
2021/12/01 11:59:32;;;;;;;6.15;2.85;;;;;;;8.71;68.17;97830.59;4495992;31;20122;-74